Time;durP1;ratioP1;P1;durP2;ratioP2;P2;SDS_P1;SDS_P2;PMS_P1;PMS_P2;Temp;Humidity;BMP_temperature;BMP_pressure;BME280_temperature;BME280_humidity;BME280_pressure;Samples;Min_cycle;Max_cycle;Signal;HPM_P1;HPM_P2
2023/10/24 00:01:03;;;;;;;6.93;2.80;;;;;;;;;;5061320;28;20517;-88
2023/10/24 00:03:28;;;;;;;3.92;3.08;;;;;;;;;;5080136;28;20040;-88
2023/10/24 00:05:53;;;;;;;3.92;2.58;;;;;;;;;;5077932;28;20028;-89
2023/10/24 00:08:40;;;;;;;7.88;2.65;;;;;;;;;;5081854;28;20045;-88
2023/10/24 00:11:06;;;;;;;5.72;2.65;;;;;;;;;;5060356;28;20032;-89
2023/10/24 00:13:31;;;;;;;4.20;2.88;;;;;;;;;;5063033;28;20024;-88
2023/10/24 00:15:57;;;;;;;5.25;2.60;;;;;;;;;;5064814;28;20023;-89
2023/10/24 00:18:27;;;;;;;4.75;2.60;;;;;;;;;;5075794;28;20020;-87
2023/10/24 00:20:52;;;;;;;4.40;2.92;;;;;;;;;;5081394;28;20024;-88
2023/10/24 00:23:18;;;;;;;4.30;2.60;;;;;;;;;;5075990;28;20035;-87
2023/10/24 00:25:43;;;;;;;3.20;2.60;;;;;;;;;;5074355;28;20028;-89
2023/10/24 00:28:09;;;;;;;3.17;2.35;;;;;;;;;;5058038;28;20033;-88
2023/10/24 00:30:35;;;;;;;5.97;3.33;;;;;;;;;;5056703;28;20023;-89
2023/10/24 00:33:00;;;;;;;2.58;2.33;;;;;;;;;;5070812;28;20032;-91
2023/10/24 00:35:25;;;;;;;5.53;2.60;;;;;;;;;;5081859;28;20016;-89
2023/10/24 00:37:51;;;;;;;3.38;2.42;;;;;;;;;;5074731;28;20020;-89
2023/10/24 00:40:18;;;;;;;5.57;2.88;;;;;;;;;;5053360;28;20112;-89
2023/10/24 00:42:44;;;;;;;2.58;2.30;;;;;;;;;;5051351;28;20043;-88
2023/10/24 00:45:10;;;;;;;5.18;2.97;;;;;;;;;;5048560;28;20581;-89
2023/10/24 00:47:36;;;;;;;3.80;2.90;;;;;;;;;;5077683;28;20024;-88
2023/10/24 00:50:06;;;;;;;4.43;2.53;;;;;;;;;;5053783;28;20017;-88
2023/10/24 00:52:32;;;;;;;4.82;2.00;;;;;;;;;;5076872;28;20020;-87
2023/10/24 00:55:04;;;;;;;3.95;2.42;;;;;;;;;;5076672;28;20031;-88
2023/10/24 00:57:30;;;;;;;;;;;;;;;;;;5063183;28;20020;-89
2023/10/24 00:59:55;;;;;;;5.10;2.50;;;;;;;;;;5053122;28;19920;-88
2023/10/24 01:02:21;;;;;;;2.97;2.30;;;;;;;;;;5057691;28;20035;-88
2023/10/24 01:04:47;;;;;;;2.35;2.10;;;;;;;;;;5062206;28;20389;-88
2023/10/24 01:07:12;;;;;;;2.67;2.08;;;;;;;;;;5076045;28;20489;-88
2023/10/24 01:09:38;;;;;;;3.10;2.13;;;;;;;;;;5074839;28;20409;-88
2023/10/24 01:12:04;;;;;;;4.28;2.00;;;;;;;;;;5066931;28;20025;-88
2023/10/24 01:14:29;;;;;;;3.40;2.30;;;;;;;;;;5064780;28;20021;-88
2023/10/24 01:16:54;;;;;;;3.70;2.22;;;;;;;;;;5051601;28;20044;-87
2023/10/24 01:19:20;;;;;;;2.42;2.22;;;;;;;;;;5074533;28;20029;-88
2023/10/24 01:21:46;;;;;;;2.47;1.90;;;;;;;;;;5060592;28;20055;-88
2023/10/24 01:24:17;;;;;;;3.05;2.35;;;;;;;;;;5049665;28;20029;-88
2023/10/24 01:26:43;;;;;;;2.97;2.35;;;;;;;;;;5050682;28;20025;-89
2023/10/24 01:29:09;;;;;;;1.77;1.67;;;;;;;;;;5072647;28;20024;-87
2023/10/24 01:31:35;;;;;;;6.25;2.10;;;;;;;;;;5069023;28;20103;-88
2023/10/24 01:34:00;;;;;;;2.95;2.22;;;;;;;;;;5074107;28;20063;-88
2023/10/24 01:36:26;;;;;;;3.13;2.30;;;;;;;;;;5060878;28;20283;-89
2023/10/24 01:38:51;;;;;;;2.92;2.10;;;;;;;;;;5062032;28;20111;-88
2023/10/24 01:41:16;;;;;;;2.85;2.05;;;;;;;;;;5064923;28;20044;-87
2023/10/24 01:43:42;;;;;;;3.67;2.25;;;;;;;;;;5065972;28;20032;-88
2023/10/24 01:46:07;;;;;;;4.35;2.53;;;;;;;;;;5066534;28;20043;-88
2023/10/24 01:48:32;;;;;;;3.28;2.13;;;;;;;;;;5078507;28;20047;-89
2023/10/24 01:50:58;;;;;;;3.75;2.22;;;;;;;;;;5046038;28;20020;-89
2023/10/24 01:53:23;;;;;;;2.13;1.92;;;;;;;;;;5058509;28;20007;-89
2023/10/24 01:55:49;;;;;;;4.53;2.30;;;;;;;;;;5065706;28;20021;-89
2023/10/24 01:58:14;;;;;;;4.28;2.25;;;;;;;;;;5058737;28;20078;-89
2023/10/24 02:00:39;;;;;;;2.97;1.80;;;;;;;;;;5062911;28;20028;-89
2023/10/24 02:03:05;;;;;;;2.75;2.47;;;;;;;;;;5053862;28;20032;-89
2023/10/24 02:05:30;;;;;;;3.00;2.70;;;;;;;;;;5066094;28;20024;-88
2023/10/24 02:07:56;;;;;;;2.45;2.22;;;;;;;;;;5057961;28;20699;-88
2023/10/24 02:10:21;;;;;;;2.55;2.20;;;;;;;;;;5073314;28;20506;-89
2023/10/24 02:12:46;;;;;;;4.43;2.08;;;;;;;;;;5040730;28;20835;-88
2023/10/24 02:15:12;;;;;;;3.25;2.15;;;;;;;;;;5065702;28;20032;-88
2023/10/24 02:17:37;;;;;;;2.70;2.25;;;;;;;;;;5075965;28;20015;-88
2023/10/24 02:20:04;;;;;;;2.35;2.13;;;;;;;;;;5050826;28;20067;-88
2023/10/24 02:22:31;;;;;;;3.42;2.38;;;;;;;;;;5059492;28;20024;-88
2023/10/24 02:24:57;;;;;;;3.88;2.40;;;;;;;;;;5064062;28;20024;-88
2023/10/24 02:27:22;;;;;;;3.05;2.17;;;;;;;;;;5063389;28;20029;-88
2023/10/24 02:29:47;;;;;;;1.90;1.80;;;;;;;;;;5063169;28;20032;-87
2023/10/24 02:32:13;;;;;;;4.72;2.05;;;;;;;;;;5072689;28;20025;-88
2023/10/24 02:34:38;;;;;;;3.00;2.15;;;;;;;;;;5080998;28;20059;-89
2023/10/24 02:37:03;;;;;;;1.98;1.75;;;;;;;;;;5073645;28;20023;-87
2023/10/24 02:39:29;;;;;;;3.03;2.15;;;;;;;;;;5055882;28;20019;-88
2023/10/24 02:41:54;;;;;;;2.20;2.00;;;;;;;;;;5077854;28;20033;-88
2023/10/24 02:44:20;;;;;;;3.03;2.38;;;;;;;;;;5078773;28;20217;-88
2023/10/24 02:46:46;;;;;;;2.40;2.13;;;;;;;;;;5056740;28;20066;-88
2023/10/24 02:49:11;;;;;;;5.10;2.15;;;;;;;;;;5053859;28;20021;-86
2023/10/24 02:51:36;;;;;;;4.18;2.40;;;;;;;;;;5071380;28;20494;-88
2023/10/24 02:54:02;;;;;;;3.47;2.50;;;;;;;;;;5057064;28;20167;-89
2023/10/24 02:56:27;;;;;;;3.45;2.13;;;;;;;;;;5063886;28;20123;-90
2023/10/24 02:58:52;;;;;;;2.88;2.58;;;;;;;;;;5070794;28;20054;-91
2023/10/24 03:01:20;;;;;;;2.78;2.45;;;;;;;;;;5083210;28;20393;-89
2023/10/24 03:03:46;;;;;;;4.38;2.47;;;;;;;;;;5047291;28;20171;-88
2023/10/24 03:06:18;;;;;;;4.68;2.30;;;;;;;;;;5063715;28;20060;-88
2023/10/24 03:08:44;;;;;;;4.15;2.70;;;;;;;;;;5070945;28;20021;-89
2023/10/24 03:11:09;;;;;;;3.78;2.42;;;;;;;;;;5090800;28;20031;-90
2023/10/24 03:13:36;;;;;;;2.85;2.28;;;;;;;;;;5061594;28;20043;-89
2023/10/24 03:16:05;;;;;;;3.88;2.50;;;;;;;;;;5065427;28;20043;-89
2023/10/24 03:18:31;;;;;;;2.85;1.90;;;;;;;;;;5067926;28;20025;-88
2023/10/24 03:21:02;;;;;;;5.28;2.55;;;;;;;;;;5089665;28;20021;-87
2023/10/24 03:23:28;;;;;;;3.08;2.35;;;;;;;;;;5100229;28;20045;-88
2023/10/24 03:25:53;;;;;;;3.45;2.33;;;;;;;;;;5080557;28;20435;-88
2023/10/24 03:28:19;;;;;;;4.65;2.72;;;;;;;;;;5070976;28;20059;-88
2023/10/24 03:30:44;;;;;;;5.22;2.03;;;;;;;;;;5064642;28;20020;-88
2023/10/24 03:33:10;;;;;;;3.10;2.22;;;;;;;;;;5058372;28;20373;-88
2023/10/24 03:35:36;;;;;;;3.22;2.42;;;;;;;;;;5065513;28;20090;-88
2023/10/24 03:38:01;;;;;;;5.20;2.60;;;;;;;;;;5073215;28;20079;-88
2023/10/24 03:40:27;;;;;;;2.97;2.08;;;;;;;;;;5068033;28;20033;-87
2023/10/24 03:42:53;;;;;;;3.42;2.30;;;;;;;;;;5061612;28;20024;-88
2023/10/24 03:45:18;;;;;;;2.70;2.17;;;;;;;;;;5070853;28;20106;-88
2023/10/24 03:47:44;;;;;;;2.15;1.95;;;;;;;;;;5080277;28;20036;-88
2023/10/24 03:50:09;;;;;;;2.15;1.90;;;;;;;;;;5079152;28;20021;-88
2023/10/24 03:52:34;;;;;;;4.85;2.28;;;;;;;;;;5061496;28;20020;-88
2023/10/24 03:55:00;;;;;;;2.45;2.00;;;;;;;;;;5052409;28;20525;-88
2023/10/24 03:57:25;;;;;;;2.53;1.80;;;;;;;;;;5072046;28;20435;-88
2023/10/24 03:59:50;;;;;;;1.65;1.55;;;;;;;;;;5045657;28;20020;-87
2023/10/24 04:02:16;;;;;;;3.25;1.80;;;;;;;;;;5070350;28;20024;-87
2023/10/24 04:04:41;;;;;;;2.03;1.60;;;;;;;;;;5049286;28;20394;-88
2023/10/24 04:07:07;;;;;;;3.65;2.03;;;;;;;;;;5072034;28;20103;-87
2023/10/24 04:09:32;;;;;;;4.95;2.15;;;;;;;;;;5065808;28;20047;-88
2023/10/24 04:11:58;;;;;;;2.03;1.83;;;;;;;;;;5058848;28;20111;-88
2023/10/24 04:14:23;;;;;;;2.17;1.90;;;;;;;;;;5060892;28;20459;-88
2023/10/24 04:16:50;;;;;;;3.70;2.10;;;;;;;;;;5062044;28;20440;-88
2023/10/24 04:19:16;;;;;;;2.35;2.10;;;;;;;;;;5055246;28;20040;-88
2023/10/24 04:21:41;;;;;;;3.75;2.28;;;;;;;;;;5073520;28;20030;-88
2023/10/24 04:24:07;;;;;;;3.40;2.20;;;;;;;;;;5067782;28;20510;-88
2023/10/24 04:26:34;;;;;;;1.92;1.70;;;;;;;;;;5064156;28;20020;-88
2023/10/24 04:28:59;;;;;;;2.58;2.38;;;;;;;;;;5072591;28;20071;-88
2023/10/24 04:31:24;;;;;;;4.05;2.20;;;;;;;;;;5060495;28;20032;-88
2023/10/24 04:33:50;;;;;;;4.40;2.50;;;;;;;;;;5074642;28;20100;-88
2023/10/24 04:36:16;;;;;;;3.13;2.10;;;;;;;;;;5063184;28;20111;-88
2023/10/24 04:38:41;;;;;;;4.70;2.45;;;;;;;;;;5066375;28;20048;-87
2023/10/24 04:41:06;;;;;;;3.63;2.35;;;;;;;;;;5065862;28;20546;-88
2023/10/24 04:43:32;;;;;;;3.80;2.15;;;;;;;;;;5042425;28;20039;-88
2023/10/24 04:45:57;;;;;;;5.63;2.40;;;;;;;;;;5051407;28;20021;-88
2023/10/24 04:48:22;;;;;;;3.78;2.35;;;;;;;;;;5058489;28;20612;-87
2023/10/24 04:50:48;;;;;;;4.40;2.58;;;;;;;;;;5063402;28;20016;-88
2023/10/24 04:53:13;;;;;;;4.00;2.60;;;;;;;;;;5086558;28;20028;-88
2023/10/24 04:55:39;;;;;;;2.90;2.38;;;;;;;;;;5067201;28;20023;-88
2023/10/24 04:58:05;;;;;;;7.57;2.78;;;;;;;;;;5062593;28;20111;-88
2023/10/24 05:00:31;;;;;;;3.70;2.72;;;;;;;;;;5067217;28;20111;-88
2023/10/24 05:02:56;;;;;;;5.03;2.50;;;;;;;;;;5046724;28;20079;-87
2023/10/24 05:05:21;;;;;;;5.10;3.28;;;;;;;;;;5049409;28;20561;-88
2023/10/24 05:07:48;;;;;;;3.42;2.60;;;;;;;;;;5062122;28;20032;-88
2023/10/24 05:10:14;;;;;;;3.10;2.03;;;;;;;;;;5054726;28;20025;-89
2023/10/24 05:12:39;;;;;;;4.03;2.38;;;;;;;;;;5074610;28;20047;-88
2023/10/24 05:15:05;;;;;;;6.88;2.88;;;;;;;;;;5070499;28;20029;-88
2023/10/24 05:17:31;;;;;;;7.80;2.63;;;;;;;;;;5056772;28;20016;-87
2023/10/24 05:19:59;;;;;;;3.67;2.60;;;;;;;;;;5059639;28;20020;-88
2023/10/24 05:22:25;;;;;;;4.40;2.60;;;;;;;;;;5063740;28;20043;-87
2023/10/24 05:24:50;;;;;;;3.85;2.90;;;;;;;;;;5072627;28;20024;-89
2023/10/24 05:27:15;;;;;;;4.47;2.85;;;;;;;;;;5048046;28;20515;-87
2023/10/24 05:29:42;;;;;;;4.68;2.22;;;;;;;;;;5059029;28;20023;-87
2023/10/24 05:32:07;;;;;;;3.65;2.55;;;;;;;;;;5057071;28;20028;-89
2023/10/24 05:34:33;;;;;;;3.17;2.50;;;;;;;;;;5058002;28;20031;-89
2023/10/24 05:37:36;;;;;;;3.92;2.78;;;;;;;;;;5046131;28;20024;-89
2023/10/24 05:40:20;;;;;;;4.20;2.58;;;;;;;;;;5015830;28;20522;-89
2023/10/24 05:43:13;;;;;;;3.80;2.22;;;;;;;;;;5067378;28;20021;-88
2023/10/24 05:45:39;;;;;;;5.30;3.03;;;;;;;;;;5048439;28;21670;-88
2023/10/24 05:48:05;;;;;;;5.18;3.13;;;;;;;;;;5023042;28;20028;-88
2023/10/24 05:50:30;;;;;;;3.70;2.30;;;;;;;;;;5038313;28;20037;-87
2023/10/24 05:52:56;;;;;;;4.03;3.15;;;;;;;;;;5045677;28;20021;-89
2023/10/24 05:55:21;;;;;;;5.50;3.00;;;;;;;;;;5066425;28;20027;-87
2023/10/24 05:57:47;;;;;;;5.63;2.70;;;;;;;;;;5069526;28;20028;-88
2023/10/24 06:00:12;;;;;;;4.03;2.67;;;;;;;;;;5070087;28;20044;-88
2023/10/24 06:02:38;;;;;;;4.28;2.60;;;;;;;;;;5076454;28;20516;-87
2023/10/24 06:05:03;;;;;;;5.18;3.13;;;;;;;;;;5069331;28;20025;-88
2023/10/24 06:07:29;;;;;;;6.60;3.13;;;;;;;;;;5070363;28;20036;-89
2023/10/24 06:09:54;;;;;;;4.13;2.90;;;;;;;;;;5070974;28;20385;-89
2023/10/24 06:12:20;;;;;;;3.55;3.00;;;;;;;;;;5072185;28;20052;-88
2023/10/24 06:14:45;;;;;;;3.13;2.70;;;;;;;;;;5057766;28;20047;-88
2023/10/24 06:17:16;;;;;;;4.50;3.22;;;;;;;;;;5040312;28;20054;-89
2023/10/24 06:19:41;;;;;;;4.30;2.88;;;;;;;;;;5040218;28;20020;-89
2023/10/24 06:22:07;;;;;;;3.47;2.90;;;;;;;;;;5069625;28;20024;-88
2023/10/24 06:24:32;;;;;;;2.83;2.58;;;;;;;;;;5046189;28;20033;-88
2023/10/24 06:26:57;;;;;;;4.80;2.60;;;;;;;;;;5054727;28;20028;-88
2023/10/24 06:29:23;;;;;;;2.72;2.30;;;;;;;;;;5047270;28;20079;-89
2023/10/24 06:31:48;;;;;;;3.83;2.88;;;;;;;;;;5046125;28;20055;-89
2023/10/24 06:34:13;;;;;;;3.67;2.38;;;;;;;;;;5087458;28;20042;-87
2023/10/24 06:36:39;;;;;;;3.45;2.40;;;;;;;;;;5066837;28;20020;-87
2023/10/24 06:39:04;;;;;;;3.33;2.58;;;;;;;;;;5059597;28;20101;-89
2023/10/24 06:41:30;;;;;;;4.40;2.63;;;;;;;;;;5037672;28;20467;-90
2023/10/24 06:43:55;;;;;;;4.57;2.20;;;;;;;;;;5044548;28;20020;-89
2023/10/24 06:46:22;;;;;;;3.17;2.47;;;;;;;;;;5062301;28;20048;-89
2023/10/24 06:48:49;;;;;;;2.47;2.00;;;;;;;;;;5042264;28;20040;-88
2023/10/24 06:51:14;;;;;;;4.30;2.85;;;;;;;;;;5049988;28;20034;-88
2023/10/24 06:53:39;;;;;;;6.25;3.08;;;;;;;;;;5071250;28;20044;-87
2023/10/24 06:56:05;;;;;;;3.90;3.15;;;;;;;;;;5076467;28;20053;-88
2023/10/24 06:58:31;;;;;;;4.78;2.65;;;;;;;;;;5044068;28;20500;-86
2023/10/24 07:00:56;;;;;;;4.90;3.42;;;;;;;;;;5068857;28;20025;-85
2023/10/24 07:03:22;;;;;;;5.13;3.05;;;;;;;;;;5062250;28;20115;-85
2023/10/24 07:05:51;;;;;;;4.78;3.47;;;;;;;;;;5068520;28;20059;-86
2023/10/24 07:08:17;;;;;;;6.20;2.95;;;;;;;;;;5082917;28;20029;-85
2023/10/24 07:10:43;;;;;;;4.60;2.67;;;;;;;;;;5067061;28;20071;-85
2023/10/24 07:13:08;;;;;;;4.70;2.70;;;;;;;;;;5075509;28;20020;-87
2023/10/24 07:15:33;;;;;;;5.45;3.03;;;;;;;;;;5080154;28;20112;-86
2023/10/24 07:17:58;;;;;;;4.57;3.13;;;;;;;;;;5054476;28;20074;-86
2023/10/24 07:20:24;;;;;;;2.75;2.55;;;;;;;;;;5060053;28;20029;-85
2023/10/24 07:22:49;;;;;;;5.10;2.92;;;;;;;;;;5055563;28;20032;-85
2023/10/24 07:25:14;;;;;;;3.90;3.00;;;;;;;;;;5055014;28;20509;-87
2023/10/24 07:27:40;;;;;;;4.22;2.50;;;;;;;;;;5057591;28;20032;-86
2023/10/24 07:30:09;;;;;;;4.93;2.60;;;;;;;;;;5063683;28;20667;-86
2023/10/24 07:32:34;;;;;;;4.90;3.03;;;;;;;;;;5065382;28;20036;-85
2023/10/24 07:34:59;;;;;;;5.15;3.08;;;;;;;;;;5074689;28;20099;-88
2023/10/24 07:37:25;;;;;;;7.07;2.88;;;;;;;;;;5069472;28;20033;-87
2023/10/24 07:39:50;;;;;;;6.60;3.25;;;;;;;;;;5063979;28;20029;-87
2023/10/24 07:42:15;;;;;;;7.95;3.05;;;;;;;;;;5039344;28;20025;-88
2023/10/24 07:44:41;;;;;;;4.38;3.05;;;;;;;;;;5042146;28;20025;-87
2023/10/24 07:47:07;;;;;;;3.65;2.75;;;;;;;;;;5054993;28;20104;-87
2023/10/24 07:49:35;;;;;;;4.10;2.75;;;;;;;;;;5073064;28;20084;-85
2023/10/24 07:52:01;;;;;;;5.00;3.13;;;;;;;;;;5066270;28;20028;-86
2023/10/24 07:54:26;;;;;;;4.07;2.92;;;;;;;;;;5055586;28;20032;-86
2023/10/24 07:56:51;;;;;;;4.65;2.80;;;;;;;;;;5071596;28;20027;-87
2023/10/24 07:59:18;;;;;;;4.97;3.75;;;;;;;;;;5073126;28;20118;-85
2023/10/24 08:01:44;;;;;;;4.13;3.30;;;;;;;;;;5050919;28;20051;-85
2023/10/24 08:04:09;;;;;;;10.65;3.45;;;;;;;;;;5083513;28;20070;-88
2023/10/24 08:06:34;;;;;;;4.50;3.50;;;;;;;;;;5075082;28;20024;-86
2023/10/24 08:09:00;;;;;;;6.72;3.47;;;;;;;;;;5073963;28;20028;-86
2023/10/24 08:11:25;;;;;;;5.00;3.33;;;;;;;;;;5063038;28;20024;-85
2023/10/24 08:13:50;;;;;;;5.38;3.45;;;;;;;;;;5067712;28;20017;-87
2023/10/24 08:16:17;;;;;;;4.28;3.08;;;;;;;;;;5061571;28;20024;-85
2023/10/24 08:18:44;;;;;;;7.93;3.45;;;;;;;;;;5079723;28;20121;-86
2023/10/24 08:21:10;;;;;;;4.65;2.90;;;;;;;;;;5068238;28;20036;-86
2023/10/24 08:23:36;;;;;;;3.95;3.25;;;;;;;;;;5068268;28;20060;-86
2023/10/24 08:26:03;;;;;;;6.70;3.25;;;;;;;;;;5089001;28;20021;-88
2023/10/24 08:28:28;;;;;;;5.85;3.50;;;;;;;;;;5065764;28;20052;-89
2023/10/24 08:30:53;;;;;;;6.50;3.78;;;;;;;;;;5051475;28;20028;-88
2023/10/24 08:33:20;;;;;;;4.82;3.33;;;;;;;;;;5072507;28;20108;-88
2023/10/24 08:35:46;;;;;;;5.00;3.70;;;;;;;;;;5080171;28;20043;-88
2023/10/24 08:38:11;;;;;;;5.30;3.17;;;;;;;;;;5080919;28;20036;-88
2023/10/24 08:40:37;;;;;;;7.35;3.15;;;;;;;;;;5069438;28;20033;-88
2023/10/24 08:43:03;;;;;;;6.30;3.33;;;;;;;;;;5083001;28;20020;-87
2023/10/24 08:45:30;;;;;;;5.03;3.00;;;;;;;;;;5074549;28;20036;-88
2023/10/24 08:47:57;;;;;;;3.60;3.20;;;;;;;;;;5068701;28;20081;-88
2023/10/24 08:50:22;;;;;;;4.50;3.20;;;;;;;;;;5080904;28;20051;-87
2023/10/24 08:52:47;;;;;;;4.90;3.35;;;;;;;;;;5075180;28;20029;-87
2023/10/24 08:55:13;;;;;;;4.05;3.17;;;;;;;;;;5062759;28;20013;-88
2023/10/24 08:57:41;;;;;;;5.32;3.63;;;;;;;;;;5087617;28;20078;-88
2023/10/24 09:00:11;;;;;;;6.50;3.78;;;;;;;;;;5054144;28;20122;-88
2023/10/24 09:02:38;;;;;;;7.55;3.42;;;;;;;;;;5070916;28;20095;-88
2023/10/24 09:05:05;;;;;;;10.00;4.00;;;;;;;;;;5061837;28;20044;-88
2023/10/24 09:07:30;;;;;;;4.72;3.08;;;;;;;;;;5082191;28;20031;-88
2023/10/24 09:09:55;;;;;;;7.57;3.90;;;;;;;;;;5055126;28;20021;-88
2023/10/24 09:12:21;;;;;;;4.60;3.50;;;;;;;;;;5072356;28;20032;-88
2023/10/24 09:14:49;;;;;;;10.32;3.65;;;;;;;;;;5068044;28;20035;-87
2023/10/24 09:17:15;;;;;;;5.13;3.13;;;;;;;;;;5059417;28;20029;-88
2023/10/24 09:19:41;;;;;;;9.25;3.97;;;;;;;;;;5046384;28;21224;-88
2023/10/24 09:22:07;;;;;;;6.22;4.05;;;;;;;;;;5077966;28;20413;-88
2023/10/24 09:24:35;;;;;;;6.55;3.90;;;;;;;;;;5068180;28;20477;-87
2023/10/24 09:27:27;;;;;;;11.98;3.70;;;;;;;;;;5019071;28;20136;-87
2023/10/24 09:29:53;;;;;;;7.32;3.00;;;;;;;;;;5066857;28;20070;-87
2023/10/24 09:32:20;;;;;;;5.90;3.45;;;;;;;;;;5049376;28;20033;-87
2023/10/24 09:34:46;;;;;;;7.15;3.42;;;;;;;;;;5069205;28;20040;-86
2023/10/24 09:37:13;;;;;;;4.53;3.58;;;;;;;;;;5084137;28;20023;-87
2023/10/24 09:39:59;;;;;;;5.25;3.25;;;;;;;;;;5045412;28;20025;-86
2023/10/24 09:42:29;;;;;;;6.72;3.80;;;;;;;;;;5056791;28;20398;-87
2023/10/24 09:45:00;;;;;;;5.50;3.78;;;;;;;;;;5071635;28;20020;-89
2023/10/24 09:47:26;;;;;;;7.32;3.47;;;;;;;;;;5071356;28;20052;-88
2023/10/24 09:49:57;;;;;;;6.18;3.72;;;;;;;;;;5062131;28;20119;-88
2023/10/24 09:52:24;;;;;;;4.93;3.33;;;;;;;;;;5066558;28;20028;-88
2023/10/24 09:54:51;;;;;;;6.07;3.42;;;;;;;;;;5058418;28;20021;-85
2023/10/24 09:57:18;;;;;;;5.97;3.72;;;;;;;;;;5061281;28;20048;-88
2023/10/24 09:59:46;;;;;;;6.30;3.72;;;;;;;;;;5071687;28;20013;-88
2023/10/24 10:02:16;;;;;;;7.50;3.90;;;;;;;;;;5073596;28;20456;-86
2023/10/24 10:04:42;;;;;;;6.10;3.78;;;;;;;;;;5055834;28;20508;-86
2023/10/24 10:07:10;;;;;;;5.45;3.63;;;;;;;;;;5080857;28;20024;-88
2023/10/24 10:09:42;;;;;;;6.07;3.92;;;;;;;;;;5078991;28;20035;-88
2023/10/24 10:12:12;;;;;;;6.63;4.13;;;;;;;;;;5060343;28;20029;-86
2023/10/24 10:15:00;;;;;;;5.63;3.35;;;;;;;;;;5062971;28;20029;-88
2023/10/24 10:17:38;;;;;;;5.85;3.90;;;;;;;;;;5051489;28;20272;-86
2023/10/24 10:20:30;;;;;;;6.13;4.10;;;;;;;;;;5077535;28;20040;-86
2023/10/24 10:23:10;;;;;;;8.23;4.10;;;;;;;;;;5057981;28;20021;-85
2023/10/24 10:26:03;;;;;;;7.22;3.83;;;;;;;;;;5065351;28;20029;-86
2023/10/24 10:28:48;;;;;;;5.95;3.60;;;;;;;;;;5051540;28;20056;-86
2023/10/24 10:31:25;;;;;;;6.18;4.03;;;;;;;;;;5044426;28;20142;-86
2023/10/24 10:33:51;;;;;;;6.88;3.80;;;;;;;;;;5085779;28;20025;-86
2023/10/24 10:36:17;;;;;;;7.38;4.20;;;;;;;;;;5049645;28;20186;-86
2023/10/24 10:38:47;;;;;;;6.63;4.22;;;;;;;;;;5069162;28;20071;-86
2023/10/24 10:41:21;;;;;;;6.15;3.63;;;;;;;;;;5087915;28;20432;-86
2023/10/24 10:44:01;;;;;;;7.88;3.83;;;;;;;;;;5062831;28;20070;-87
2023/10/24 10:46:29;;;;;;;6.80;3.70;;;;;;;;;;5038130;28;20029;-85
2023/10/24 10:49:03;;;;;;;8.23;3.60;;;;;;;;;;5062886;28;20073;-88
2023/10/24 10:51:31;;;;;;;6.07;3.63;;;;;;;;;;5062624;28;20037;-88
2023/10/24 10:54:35;;;;;;;7.80;3.58;;;;;;;;;;5058951;28;20485;-88
2023/10/24 10:57:04;;;;;;;4.90;3.25;;;;;;;;;;4951824;28;20127;-87
2023/10/24 10:59:44;;;;;;;6.85;3.88;;;;;;;;;;5031452;28;20104;-88
2023/10/24 11:02:32;;;;;;;6.28;4.10;;;;;;;;;;5072704;28;20047;-87
2023/10/24 11:04:58;;;;;;;4.95;3.63;;;;;;;;;;5046941;28;20031;-87
2023/10/24 11:07:52;;;;;;;9.75;4.15;;;;;;;;;;5065707;28;20032;-87
2023/10/24 11:10:18;;;;;;;7.05;4.05;;;;;;;;;;5044484;28;20065;-87
2023/10/24 11:12:47;;;;;;;7.25;4.57;;;;;;;;;;5064227;28;20478;-87
2023/10/24 11:15:22;;;;;;;6.18;3.88;;;;;;;;;;5034611;28;20037;-88
2023/10/24 11:17:47;;;;;;;4.80;3.65;;;;;;;;;;5040635;28;20473;-87
2023/10/24 11:20:12;;;;;;;8.15;4.45;;;;;;;;;;5044444;28;20097;-88
2023/10/24 11:22:38;;;;;;;9.27;4.72;;;;;;;;;;5071968;28;20063;-87
2023/10/24 11:25:13;;;;;;;7.78;4.57;;;;;;;;;;5070876;28;20111;-87
2023/10/24 11:27:39;;;;;;;6.13;4.38;;;;;;;;;;5076293;28;20058;-86
2023/10/24 11:30:06;;;;;;;6.93;4.07;;;;;;;;;;5073332;28;20012;-87
2023/10/24 11:32:33;;;;;;;10.43;4.57;;;;;;;;;;5076037;28;20028;-87
2023/10/24 11:34:58;;;;;;;8.48;4.97;;;;;;;;;;5053908;28;20681;-88
2023/10/24 11:37:23;;;;;;;6.43;4.20;;;;;;;;;;5078221;28;20024;-87
2023/10/24 11:39:49;;;;;;;5.15;3.95;;;;;;;;;;5079278;28;20020;-87
2023/10/24 11:42:15;;;;;;;8.80;4.35;;;;;;;;;;5085332;28;20047;-87
2023/10/24 11:44:40;;;;;;;8.23;4.95;;;;;;;;;;5074130;28;20099;-87
2023/10/24 11:47:07;;;;;;;7.75;4.82;;;;;;;;;;5058340;28;20024;-86
2023/10/24 11:49:34;;;;;;;11.00;4.72;;;;;;;;;;5068008;28;20611;-86
2023/10/24 11:51:59;;;;;;;5.95;4.25;;;;;;;;;;5075325;28;20030;-86
2023/10/24 11:54:26;;;;;;;5.80;4.38;;;;;;;;;;5079728;28;20103;-86
2023/10/24 11:56:53;;;;;;;8.48;4.68;;;;;;;;;;5070810;28;20090;-86
2023/10/24 11:59:18;;;;;;;7.30;4.50;;;;;;;;;;5078683;28;20033;-86
2023/10/24 12:01:44;;;;;;;6.68;4.60;;;;;;;;;;5070485;28;20043;-86
2023/10/24 12:04:11;;;;;;;7.30;5.13;;;;;;;;;;5069364;28;20295;-86
2023/10/24 12:06:37;;;;;;;6.13;4.32;;;;;;;;;;5064324;28;20064;-85
2023/10/24 12:09:02;;;;;;;6.03;4.40;;;;;;;;;;5074354;28;20382;-84
2023/10/24 12:11:28;;;;;;;6.05;4.13;;;;;;;;;;5071786;28;20103;-87
2023/10/24 12:13:53;;;;;;;6.05;4.45;;;;;;;;;;5063903;28;20091;-87
2023/10/24 12:16:18;;;;;;;6.90;4.28;;;;;;;;;;5066461;28;20037;-85
2023/10/24 12:18:44;;;;;;;7.03;4.57;;;;;;;;;;5054736;28;20029;-86
2023/10/24 12:21:11;;;;;;;9.77;5.22;;;;;;;;;;5042290;28;20115;-86
2023/10/24 12:23:36;;;;;;;6.65;4.55;;;;;;;;;;5067901;28;20021;-86
2023/10/24 12:26:04;;;;;;;8.68;4.60;;;;;;;;;;5063527;28;20108;-86
2023/10/24 12:28:29;;;;;;;8.05;4.63;;;;;;;;;;5069000;28;20059;-85
2023/10/24 12:30:55;;;;;;;6.35;4.88;;;;;;;;;;5067260;28;20103;-86
2023/10/24 12:33:20;;;;;;;7.60;4.63;;;;;;;;;;5076159;28;20051;-86
2023/10/24 12:35:45;;;;;;;5.35;4.28;;;;;;;;;;5047827;28;20025;-86
2023/10/24 12:38:11;;;;;;;8.75;4.25;;;;;;;;;;5063083;28;23872;-86
2023/10/24 12:40:38;;;;;;;5.35;4.07;;;;;;;;;;5066703;28;20021;-86
2023/10/24 12:43:04;;;;;;;7.10;4.45;;;;;;;;;;5069611;28;20013;-86
2023/10/24 12:45:30;;;;;;;6.68;4.13;;;;;;;;;;5052414;28;20020;-85
2023/10/24 12:47:57;;;;;;;6.32;4.40;;;;;;;;;;5065599;28;20088;-85
2023/10/24 12:50:23;;;;;;;6.70;4.45;;;;;;;;;;5069578;28;20028;-87
2023/10/24 12:52:48;;;;;;;6.15;4.93;;;;;;;;;;5063679;28;20094;-85
2023/10/24 12:55:13;;;;;;;8.77;4.93;;;;;;;;;;5081766;28;20037;-86
2023/10/24 12:57:39;;;;;;;5.38;4.00;;;;;;;;;;5062857;28;20020;-87
2023/10/24 13:00:05;;;;;;;6.40;4.25;;;;;;;;;;5073735;28;20039;-86
2023/10/24 13:02:30;;;;;;;4.38;3.53;;;;;;;;;;5079146;28;20473;-86
2023/10/24 13:04:55;;;;;;;7.65;4.25;;;;;;;;;;5087592;28;20031;-87
2023/10/24 13:07:21;;;;;;;7.00;4.07;;;;;;;;;;5074550;28;20481;-86
2023/10/24 13:09:46;;;;;;;6.22;4.43;;;;;;;;;;5057467;28;20090;-87
2023/10/24 13:12:12;;;;;;;8.70;4.50;;;;;;;;;;5078445;28;20029;-86
2023/10/24 13:14:37;;;;;;;6.97;3.80;;;;;;;;;;5076181;28;20016;-87
2023/10/24 13:17:03;;;;;;;7.15;4.60;;;;;;;;;;5063633;28;20154;-87
2023/10/24 13:19:29;;;;;;;8.30;4.75;;;;;;;;;;5069147;28;20039;-87
2023/10/24 13:21:55;;;;;;;5.30;4.35;;;;;;;;;;5069201;28;20033;-85
2023/10/24 13:24:21;;;;;;;5.40;3.78;;;;;;;;;;5082549;28;20032;-87
2023/10/24 13:26:47;;;;;;;6.97;4.18;;;;;;;;;;5055513;28;20498;-87
2023/10/24 13:29:14;;;;;;;5.97;4.47;;;;;;;;;;5077807;28;20064;-87
2023/10/24 13:31:43;;;;;;;5.38;3.65;;;;;;;;;;5059120;28;20035;-87
2023/10/24 13:34:09;;;;;;;7.57;4.45;;;;;;;;;;5062771;28;20117;-86
2023/10/24 13:36:34;;;;;;;5.10;4.00;;;;;;;;;;5053784;28;20028;-87
2023/10/24 13:39:00;;;;;;;7.45;4.90;;;;;;;;;;5068387;28;20020;-86
2023/10/24 13:41:25;;;;;;;8.10;4.63;;;;;;;;;;5073426;28;20025;-87
2023/10/24 13:43:51;;;;;;;6.30;4.30;;;;;;;;;;5055994;28;20073;-87
2023/10/24 13:46:16;;;;;;;7.47;4.35;;;;;;;;;;5051200;28;20052;-85
2023/10/24 13:48:41;;;;;;;8.82;4.97;;;;;;;;;;5065670;28;20029;-87
2023/10/24 13:51:07;;;;;;;12.55;4.72;;;;;;;;;;5063794;28;20102;-86
2023/10/24 13:53:32;;;;;;;7.50;4.40;;;;;;;;;;5073793;28;20525;-86
2023/10/24 13:55:58;;;;;;;6.10;4.60;;;;;;;;;;5064407;28;20020;-86
2023/10/24 13:58:24;;;;;;;7.40;4.93;;;;;;;;;;5082557;28;20031;-85
2023/10/24 14:00:49;;;;;;;8.90;5.05;;;;;;;;;;5065710;28;20429;-86
2023/10/24 14:03:14;;;;;;;7.15;4.57;;;;;;;;;;5052292;28;20048;-86
2023/10/24 14:05:40;;;;;;;8.05;4.93;;;;;;;;;;5063990;28;20031;-86
2023/10/24 14:08:06;;;;;;;10.77;4.93;;;;;;;;;;5073935;28;20517;-86
2023/10/24 14:10:31;;;;;;;7.70;4.95;;;;;;;;;;5062457;28;20044;-85
2023/10/24 14:12:57;;;;;;;7.35;4.57;;;;;;;;;;5056019;28;20028;-85
2023/10/24 14:15:23;;;;;;;9.60;5.18;;;;;;;;;;5075385;28;20488;-85
2023/10/24 14:17:48;;;;;;;7.82;5.45;;;;;;;;;;5055714;28;20108;-85
2023/10/24 14:20:14;;;;;;;8.02;4.90;;;;;;;;;;5056581;28;20064;-85
2023/10/24 14:22:40;;;;;;;7.70;4.55;;;;;;;;;;5063888;28;20058;-86
2023/10/24 14:25:08;;;;;;;6.47;4.25;;;;;;;;;;5063580;28;20040;-85
2023/10/24 14:27:33;;;;;;;7.18;4.40;;;;;;;;;;5071709;28;20021;-86
2023/10/24 14:29:59;;;;;;;7.30;4.35;;;;;;;;;;5064159;28;20040;-85
2023/10/24 14:32:24;;;;;;;4.10;3.60;;;;;;;;;;5063158;28;20063;-86
2023/10/24 14:34:49;;;;;;;7.32;3.75;;;;;;;;;;5051239;28;20032;-85
2023/10/24 14:37:14;;;;;;;4.82;3.03;;;;;;;;;;5072529;28;20032;-86
2023/10/24 14:39:40;;;;;;;4.75;3.05;;;;;;;;;;5070855;28;20028;-85
2023/10/24 14:42:05;;;;;;;6.72;3.13;;;;;;;;;;5061824;28;20432;-85